Time;durP1;ratioP1;P1;durP2;ratioP2;P2;SDS_P1;SDS_P2;PMS_P1;PMS_P2;Temp;Humidity;BMP_temperature;BMP_pressure;BME280_temperature;BME280_humidity;BME280_pressure;Samples;Min_cycle;Max_cycle;Signal;HPM_P1;HPM_P2
2023/03/26 00:01:49;;;;;;;3.67;1.60;;;;;;;;;;4997972;28;20466;-53
2023/03/26 00:04:18;;;;;;;6.20;1.40;;;;;;;;;;4993029;28;20447;-53
2023/03/26 00:06:47;;;;;;;2.50;1.47;;;;;;;;;;5002530;28;20439;-52
2023/03/26 00:09:14;;;;;;;3.50;1.80;;;;;;;;;;4995061;28;20491;-55
2023/03/26 00:11:40;;;;;;;5.57;2.13;;;;;;;;;;5025682;28;20435;-54
2023/03/26 00:14:08;;;;;;;6.83;2.80;;;;;;;;;;4991831;28;20489;-53
2023/03/26 00:16:34;;;;;;;2.47;1.50;;;;;;;;;;5015799;28;20482;-54
2023/03/26 00:19:00;;;;;;;2.70;1.43;;;;;;;;;;5009291;28;20502;-55
2023/03/26 00:21:27;;;;;;;3.90;1.27;;;;;;;;;;5015613;28;20200;-54
2023/03/26 00:23:58;;;;;;;2.33;1.30;;;;;;;;;;4986088;28;20458;-54
2023/03/26 00:26:24;;;;;;;1.93;1.70;;;;;;;;;;5018785;28;20478;-54
2023/03/26 00:28:50;;;;;;;2.40;1.70;;;;;;;;;;4989635;28;20443;-54
2023/03/26 00:31:16;;;;;;;3.20;1.77;;;;;;;;;;5022320;28;20435;-54
2023/03/26 00:33:42;;;;;;;2.10;1.13;;;;;;;;;;4991500;28;20442;-54
2023/03/26 00:36:09;;;;;;;3.43;1.83;;;;;;;;;;5020492;28;20992;-53
2023/03/26 00:38:37;;;;;;;1.60;1.30;;;;;;;;;;4973718;28;20505;-54
2023/03/26 00:41:06;;;;;;;3.47;2.03;;;;;;;;;;5015000;28;21257;-54
2023/03/26 00:43:32;;;;;;;3.27;1.47;;;;;;;;;;5016219;28;20734;-54
2023/03/26 00:45:59;;;;;;;3.70;1.53;;;;;;;;;;5016132;28;20996;-54
2023/03/26 00:48:33;;;;;;;1.57;1.13;;;;;;;;;;4988023;28;20438;-53
2023/03/26 00:51:00;;;;;;;2.47;1.30;;;;;;;;;;5015929;28;20451;-53
2023/03/26 00:53:25;;;;;;;1.80;1.40;;;;;;;;;;5015950;28;20426;-55
2023/03/26 00:55:51;;;;;;;2.43;1.40;;;;;;;;;;5015335;28;20526;-53
2023/03/26 00:58:21;;;;;;;1.83;1.20;;;;;;;;;;4994692;28;20552;-54
2023/03/26 01:00:56;;;;;;;1.87;1.50;;;;;;;;;;5018888;28;20472;-54
2023/03/26 01:03:23;;;;;;;2.50;1.10;;;;;;;;;;4994467;28;20493;-54
2023/03/26 01:05:55;;;;;;;11.63;1.77;;;;;;;;;;5015610;28;20537;-53
2023/03/26 01:08:26;;;;;;;5.67;1.90;;;;;;;;;;5028904;28;20453;-54
2023/03/26 01:10:52;;;;;;;4.90;1.20;;;;;;;;;;5018533;28;20478;-53
2023/03/26 01:13:19;;;;;;;2.70;1.73;;;;;;;;;;4987728;28;20490;-53
2023/03/26 01:15:49;;;;;;;3.10;1.40;;;;;;;;;;5020733;28;20443;-54
2023/03/26 01:18:15;;;;;;;6.60;1.47;;;;;;;;;;5004371;28;20533;-54
2023/03/26 01:20:45;;;;;;;3.27;1.70;;;;;;;;;;5022044;28;20443;-53
2023/03/26 01:23:11;;;;;;;7.07;1.63;;;;;;;;;;5014845;28;20431;-54
2023/03/26 01:25:38;;;;;;;4.10;1.50;;;;;;;;;;5019691;28;20606;-55
2023/03/26 01:28:04;;;;;;;5.47;2.23;;;;;;;;;;4990625;28;20447;-53
2023/03/26 01:30:40;;;;;;;3.90;1.37;;;;;;;;;;5014877;28;20453;-55
2023/03/26 01:33:15;;;;;;;6.60;1.90;;;;;;;;;;4989686;28;20463;-53
2023/03/26 01:35:50;;;;;;;2.70;1.63;;;;;;;;;;5019799;28;20438;-54
2023/03/26 01:38:23;;;;;;;1.90;1.13;;;;;;;;;;4994292;28;20494;-54
2023/03/26 01:40:51;;;;;;;5.57;1.70;;;;;;;;;;5018713;28;20442;-53
2023/03/26 01:43:25;;;;;;;3.00;1.60;;;;;;;;;;5011586;28;20439;-55
2023/03/26 01:45:51;;;;;;;4.10;2.23;;;;;;;;;;5005599;28;21129;-53
2023/03/26 01:48:17;;;;;;;2.13;1.30;;;;;;;;;;5017702;28;20427;-52
2023/03/26 01:50:43;;;;;;;4.67;1.20;;;;;;;;;;4984539;28;20454;-54
2023/03/26 01:53:09;;;;;;;2.23;1.30;;;;;;;;;;5013990;28;22698;-54
2023/03/26 01:55:40;;;;;;;5.73;1.20;;;;;;;;;;5031169;28;20450;-54
2023/03/26 01:58:11;;;;;;;3.07;1.10;;;;;;;;;;5033839;28;21275;-53
2023/03/26 02:00:53;;;;;;;1.77;1.40;;;;;;;;;;5004268;28;20888;-55
2023/03/26 02:03:45;;;;;;;12.50;1.90;;;;;;;;;;5022943;28;20434;-55
2023/03/26 02:06:17;;;;;;;5.80;2.23;;;;;;;;;;5004506;28;20483;-54
2023/03/26 02:09:07;;;;;;;5.63;1.83;;;;;;;;;;5015407;28;21067;-54
2023/03/26 02:11:33;;;;;;;4.67;1.60;;;;;;;;;;5012290;28;20425;-55
2023/03/26 02:14:00;;;;;;;2.97;1.10;;;;;;;;;;5002811;28;20444;-56
2023/03/26 02:16:26;;;;;;;3.70;1.70;;;;;;;;;;5008332;28;21117;-53
2023/03/26 02:18:54;;;;;;;1.87;1.40;;;;;;;;;;4992952;28;20442;-54
2023/03/26 02:21:21;;;;;;;2.67;1.10;;;;;;;;;;5013469;28;20804;-54
2023/03/26 02:23:48;;;;;;;3.53;1.30;;;;;;;;;;4995612;28;20435;-55
2023/03/26 02:26:17;;;;;;;4.40;1.30;;;;;;;;;;5021722;28;20478;-55
2023/03/26 02:28:43;;;;;;;3.00;1.43;;;;;;;;;;5012189;28;20423;-55
2023/03/26 02:31:09;;;;;;;11.40;1.83;;;;;;;;;;5016747;28;20446;-54
2023/03/26 02:33:35;;;;;;;2.37;1.50;;;;;;;;;;4993137;28;20541;-55
2023/03/26 02:36:01;;;;;;;2.63;1.30;;;;;;;;;;5017583;28;20448;-55
2023/03/26 02:38:28;;;;;;;1.50;1.13;;;;;;;;;;4984393;28;20446;-54
2023/03/26 02:40:54;;;;;;;6.53;1.77;;;;;;;;;;5017761;28;20451;-53
2023/03/26 02:43:20;;;;;;;2.87;2.03;;;;;;;;;;5016760;28;20431;-52
2023/03/26 02:45:46;;;;;;;3.53;1.50;;;;;;;;;;5015418;28;20475;-54
2023/03/26 02:48:14;;;;;;;6.43;1.93;;;;;;;;;;4989486;28;20453;-54
2023/03/26 02:50:40;;;;;;;6.70;1.23;;;;;;;;;;5010628;28;20467;-53
2023/03/26 02:53:05;;;;;;;4.40;1.37;;;;;;;;;;4992989;28;23138;-55
2023/03/26 02:55:31;;;;;;;6.40;1.80;;;;;;;;;;5013679;28;20439;-55
2023/03/26 02:57:57;;;;;;;2.30;1.50;;;;;;;;;;5008699;28;20457;-54
2023/03/26 03:00:24;;;;;;;2.70;1.30;;;;;;;;;;5015726;28;20443;-54
2023/03/26 03:02:51;;;;;;;4.17;1.97;;;;;;;;;;5013462;28;20459;-54
2023/03/26 03:05:17;;;;;;;5.43;1.47;;;;;;;;;;5009621;28;20481;-55
2023/03/26 03:07:45;;;;;;;2.63;1.17;;;;;;;;;;4989540;28;20451;-55
2023/03/26 03:10:12;;;;;;;2.23;1.30;;;;;;;;;;5013047;28;20465;-55
2023/03/26 03:12:38;;;;;;;2.80;1.60;;;;;;;;;;4989663;28;20451;-54
2023/03/26 03:15:04;;;;;;;3.40;1.50;;;;;;;;;;5011875;28;20441;-53
2023/03/26 03:17:30;;;;;;;6.30;1.57;;;;;;;;;;5005909;28;20471;-54
2023/03/26 03:19:56;;;;;;;2.20;1.37;;;;;;;;;;5015921;28;20455;-52
2023/03/26 03:22:22;;;;;;;6.53;1.37;;;;;;;;;;4968159;28;20459;-54
2023/03/26 03:24:50;;;;;;;2.03;1.20;;;;;;;;;;5015866;28;20485;-53
2023/03/26 03:27:18;;;;;;;2.03;1.53;;;;;;;;;;4989303;28;20471;-53
2023/03/26 03:29:44;;;;;;;3.07;1.60;;;;;;;;;;5018208;28;20502;-53
2023/03/26 03:32:10;;;;;;;7.30;1.53;;;;;;;;;;5005564;28;20558;-54
2023/03/26 03:34:37;;;;;;;2.93;1.43;;;;;;;;;;5006531;28;20542;-55
2023/03/26 03:37:03;;;;;;;6.53;1.60;;;;;;;;;;4982520;28;20467;-54
2023/03/26 03:39:29;;;;;;;6.17;2.10;;;;;;;;;;5011263;28;20451;-53
2023/03/26 03:41:55;;;;;;;2.33;2.00;;;;;;;;;;4974115;28;20458;-54
2023/03/26 03:44:21;;;;;;;8.93;1.63;;;;;;;;;;5013765;28;20454;-53
2023/03/26 03:46:48;;;;;;;2.20;1.63;;;;;;;;;;4988167;28;20228;-54
2023/03/26 03:49:14;;;;;;;2.37;1.50;;;;;;;;;;5013776;28;20479;-52
2023/03/26 03:51:41;;;;;;;3.17;1.37;;;;;;;;;;4997134;28;21012;-54
2023/03/26 03:54:07;;;;;;;4.17;1.23;;;;;;;;;;4990790;28;20569;-55
2023/03/26 03:56:34;;;;;;;2.47;1.73;;;;;;;;;;5018752;28;20955;-55
2023/03/26 03:59:00;;;;;;;10.30;1.53;;;;;;;;;;4990947;28;20486;-53
2023/03/26 04:01:29;;;;;;;2.27;1.20;;;;;;;;;;5014749;28;20902;-54
2023/03/26 04:03:55;;;;;;;2.13;1.33;;;;;;;;;;5015626;28;22256;-53
2023/03/26 04:06:24;;;;;;;8.70;1.93;;;;;;;;;;5021665;28;20975;-54
2023/03/26 04:08:50;;;;;;;3.60;1.80;;;;;;;;;;4993797;28;20215;-53
2023/03/26 04:11:16;;;;;;;2.97;1.67;;;;;;;;;;5020539;28;20431;-54
2023/03/26 04:13:42;;;;;;;4.13;1.67;;;;;;;;;;5015231;28;21123;-59
2023/03/26 04:16:08;;;;;;;2.60;1.40;;;;;;;;;;5021369;28;20435;-54
2023/03/26 04:18:35;;;;;;;2.60;1.83;;;;;;;;;;4995216;28;20440;-54
2023/03/26 04:21:01;;;;;;;3.97;1.13;;;;;;;;;;5023036;28;20435;-56
2023/03/26 04:23:28;;;;;;;7.73;2.00;;;;;;;;;;4974931;28;21152;-54
2023/03/26 04:25:54;;;;;;;2.40;1.43;;;;;;;;;;5020051;28;20478;-54
2023/03/26 04:28:41;;;;;;;2.53;1.40;;;;;;;;;;5006723;28;20530;-52
2023/03/26 04:31:10;;;;;;;3.00;1.43;;;;;;;;;;5016018;28;20589;-53
2023/03/26 04:33:37;;;;;;;3.30;1.67;;;;;;;;;;5030101;28;20496;-54
2023/03/26 04:36:04;;;;;;;5.57;1.90;;;;;;;;;;5016616;28;20459;-55
2023/03/26 04:38:32;;;;;;;3.93;1.87;;;;;;;;;;4994801;28;20439;-53
2023/03/26 04:41:01;;;;;;;6.57;1.80;;;;;;;;;;5032351;28;20526;-55
2023/03/26 04:43:29;;;;;;;5.20;1.60;;;;;;;;;;5014154;28;20447;-54
2023/03/26 04:45:55;;;;;;;1.83;1.20;;;;;;;;;;5019296;28;20523;-55
2023/03/26 04:48:21;;;;;;;4.20;1.10;;;;;;;;;;5006460;28;20887;-53
2023/03/26 04:50:47;;;;;;;6.43;2.90;;;;;;;;;;5015603;28;20443;-54
2023/03/26 04:53:14;;;;;;;3.10;1.00;;;;;;;;;;4960219;28;22150;-54
2023/03/26 04:55:45;;;;;;;4.10;1.30;;;;;;;;;;5004832;28;20944;-54
2023/03/26 04:58:12;;;;;;;3.20;1.10;;;;;;;;;;5006729;28;20494;-53
2023/03/26 05:00:40;;;;;;;2.40;1.30;;;;;;;;;;5014146;28;21054;-53
2023/03/26 05:03:08;;;;;;;4.03;1.83;;;;;;;;;;5026792;28;21011;-55
2023/03/26 05:05:35;;;;;;;3.43;1.80;;;;;;;;;;5016895;28;20902;-52
2023/03/26 05:08:01;;;;;;;1.90;1.57;;;;;;;;;;5008079;28;21271;-55
2023/03/26 05:10:27;;;;;;;4.90;1.60;;;;;;;;;;5009966;28;20439;-54
2023/03/26 05:12:53;;;;;;;5.20;1.93;;;;;;;;;;5016479;28;20439;-55
2023/03/26 05:15:19;;;;;;;3.60;1.90;;;;;;;;;;5014247;28;20435;-55
2023/03/26 05:17:47;;;;;;;2.27;1.10;;;;;;;;;;5019943;28;20438;-54
2023/03/26 05:20:15;;;;;;;3.27;1.40;;;;;;;;;;4999877;28;20435;-55
2023/03/26 05:22:42;;;;;;;4.30;2.23;;;;;;;;;;5013273;28;20436;-55
2023/03/26 05:25:08;;;;;;;8.87;2.07;;;;;;;;;;4976781;28;20584;-55
2023/03/26 05:27:34;;;;;;;2.20;1.10;;;;;;;;;;4992753;28;20449;-54
2023/03/26 05:30:01;;;;;;;2.83;1.70;;;;;;;;;;5019331;28;20435;-54
2023/03/26 05:32:27;;;;;;;4.77;1.30;;;;;;;;;;4990675;28;20450;-54
2023/03/26 05:34:53;;;;;;;5.00;1.60;;;;;;;;;;5019758;28;20438;-54
2023/03/26 05:37:23;;;;;;;4.83;1.93;;;;;;;;;;5016768;28;20530;-55
2023/03/26 05:39:51;;;;;;;3.80;1.70;;;;;;;;;;5011205;28;21680;-55
2023/03/26 05:42:17;;;;;;;8.73;3.17;;;;;;;;;;4986197;28;20571;-55
2023/03/26 05:44:43;;;;;;;5.87;1.97;;;;;;;;;;5013910;28;20466;-55
2023/03/26 05:47:09;;;;;;;4.40;1.60;;;;;;;;;;5007669;28;20446;-54
2023/03/26 05:49:35;;;;;;;5.47;1.20;;;;;;;;;;5016667;28;20435;-55
2023/03/26 05:52:01;;;;;;;4.90;1.70;;;;;;;;;;5016906;28;20443;-55
2023/03/26 05:54:27;;;;;;;6.70;1.40;;;;;;;;;;5023464;28;20442;-55
2023/03/26 05:56:53;;;;;;;3.00;1.60;;;;;;;;;;4970914;28;20768;-55
2023/03/26 05:59:19;;;;;;;6.03;1.57;;;;;;;;;;5018337;28;20435;-55
2023/03/26 06:01:46;;;;;;;3.47;1.70;;;;;;;;;;4983180;28;20685;-54
2023/03/26 06:04:12;;;;;;;2.63;1.43;;;;;;;;;;5011150;28;20562;-54
2023/03/26 06:06:38;;;;;;;4.70;1.73;;;;;;;;;;4987269;28;20544;-55
2023/03/26 06:09:05;;;;;;;5.33;1.80;;;;;;;;;;5014520;28;20443;-54
2023/03/26 06:11:31;;;;;;;1.90;1.10;;;;;;;;;;5006363;28;20510;-54
2023/03/26 06:13:57;;;;;;;4.17;1.97;;;;;;;;;;5012825;28;20449;-54
2023/03/26 06:16:23;;;;;;;2.13;1.67;;;;;;;;;;4972363;28;20597;-53
2023/03/26 06:18:50;;;;;;;4.33;1.77;;;;;;;;;;5002462;28;20568;-53
2023/03/26 06:21:16;;;;;;;4.47;1.80;;;;;;;;;;4982640;28;20493;-56
2023/03/26 06:23:42;;;;;;;3.40;1.90;;;;;;;;;;5006225;28;20495;-54
2023/03/26 06:26:08;;;;;;;2.70;1.60;;;;;;;;;;5012592;28;20496;-56
2023/03/26 06:28:35;;;;;;;5.93;2.03;;;;;;;;;;5014315;28;20430;-55
2023/03/26 06:31:01;;;;;;;6.30;2.27;;;;;;;;;;4966615;28;20518;-55
2023/03/26 06:33:27;;;;;;;4.70;1.80;;;;;;;;;;5013449;28;20451;-55
2023/03/26 06:35:53;;;;;;;6.50;1.37;;;;;;;;;;4990609;28;20443;-54
2023/03/26 06:38:19;;;;;;;5.80;1.37;;;;;;;;;;5029999;28;20435;-54
2023/03/26 06:40:45;;;;;;;2.43;1.40;;;;;;;;;;4985528;28;20455;-54
2023/03/26 06:43:11;;;;;;;5.20;1.90;;;;;;;;;;5013451;28;20454;-55
2023/03/26 06:45:37;;;;;;;6.00;2.13;;;;;;;;;;5012703;28;20684;-55
2023/03/26 06:48:03;;;;;;;6.80;1.70;;;;;;;;;;5013864;28;21368;-54
2023/03/26 06:50:31;;;;;;;1.87;1.43;;;;;;;;;;4980638;28;20451;-55
2023/03/26 06:52:56;;;;;;;4.00;1.50;;;;;;;;;;5007258;28;20585;-54
2023/03/26 06:55:23;;;;;;;6.43;2.07;;;;;;;;;;4975821;28;20509;-55
2023/03/26 06:57:49;;;;;;;6.70;1.53;;;;;;;;;;4992453;28;21507;-55
2023/03/26 07:00:24;;;;;;;3.00;1.60;;;;;;;;;;4975696;28;20661;-54
2023/03/26 07:02:51;;;;;;;4.20;1.60;;;;;;;;;;4985651;28;20604;-55
2023/03/26 07:05:17;;;;;;;4.27;2.17;;;;;;;;;;4982813;28;20462;-55
2023/03/26 07:07:44;;;;;;;7.43;1.50;;;;;;;;;;5008609;28;20996;-54
2023/03/26 07:10:10;;;;;;;4.67;1.50;;;;;;;;;;4991288;28;20540;-55
2023/03/26 07:12:36;;;;;;;3.57;1.40;;;;;;;;;;5010820;28;20887;-54
2023/03/26 07:15:02;;;;;;;7.73;1.90;;;;;;;;;;5006223;28;20527;-55
2023/03/26 07:17:28;;;;;;;4.03;1.33;;;;;;;;;;5015323;28;20431;-55
2023/03/26 07:19:54;;;;;;;2.90;1.93;;;;;;;;;;5002159;28;20498;-55
2023/03/26 07:22:21;;;;;;;4.60;1.73;;;;;;;;;;4996077;28;20438;-54
2023/03/26 07:24:47;;;;;;;5.30;1.87;;;;;;;;;;5004917;28;21034;-53
2023/03/26 07:27:28;;;;;;;7.60;1.93;;;;;;;;;;4990902;28;20485;-55
2023/03/26 07:29:58;;;;;;;5.20;1.80;;;;;;;;;;5002060;28;20441;-54
2023/03/26 07:32:24;;;;;;;4.67;1.50;;;;;;;;;;5001680;28;21638;-54
2023/03/26 07:34:55;;;;;;;3.90;1.80;;;;;;;;;;5002435;28;20447;-55
2023/03/26 07:37:27;;;;;;;6.37;1.60;;;;;;;;;;4985800;28;20451;-52
2023/03/26 07:40:02;;;;;;;6.00;1.47;;;;;;;;;;5004138;28;20436;-55
2023/03/26 07:42:34;;;;;;;3.93;1.57;;;;;;;;;;5000834;28;20956;-54
2023/03/26 07:45:19;;;;;;;2.60;1.67;;;;;;;;;;5013171;28;20477;-56
2023/03/26 07:47:45;;;;;;;4.07;1.90;;;;;;;;;;5015494;28;20462;-53
2023/03/26 07:50:15;;;;;;;3.23;1.73;;;;;;;;;;5032543;28;20560;-54
2023/03/26 07:52:41;;;;;;;3.00;1.53;;;;;;;;;;5020683;28;20473;-54
2023/03/26 07:55:08;;;;;;;2.83;1.50;;;;;;;;;;5001348;28;20763;-55
2023/03/26 07:57:43;;;;;;;2.43;1.87;;;;;;;;;;5010205;28;20541;-55
2023/03/26 08:00:17;;;;;;;2.20;1.57;;;;;;;;;;4994652;28;20434;-55
2023/03/26 08:02:49;;;;;;;6.10;2.20;;;;;;;;;;5014629;28;20530;-54
2023/03/26 08:05:18;;;;;;;2.00;1.40;;;;;;;;;;4989864;28;21070;-56
2023/03/26 08:07:51;;;;;;;4.60;2.50;;;;;;;;;;5016392;28;20836;-55
2023/03/26 08:10:32;;;;;;;2.73;1.67;;;;;;;;;;4977145;28;21015;-55
2023/03/26 08:13:08;;;;;;;5.33;1.90;;;;;;;;;;5000411;28;20739;-56
2023/03/26 08:15:36;;;;;;;2.60;1.50;;;;;;;;;;4998900;28;20441;-55
2023/03/26 08:18:05;;;;;;;6.30;1.77;;;;;;;;;;5013658;28;20438;-55
2023/03/26 08:20:31;;;;;;;4.37;2.10;;;;;;;;;;5014259;28;20434;-56
2023/03/26 08:23:01;;;;;;;4.80;2.13;;;;;;;;;;5012341;28;21220;-56
2023/03/26 08:25:33;;;;;;;8.67;1.80;;;;;;;;;;4995042;28;20482;-54
2023/03/26 08:28:18;;;;;;;5.60;2.20;;;;;;;;;;5008662;28;20798;-55
2023/03/26 08:30:45;;;;;;;4.17;1.90;;;;;;;;;;5003223;28;20538;-55
2023/03/26 08:33:11;;;;;;;8.17;2.13;;;;;;;;;;5005065;28;20489;-55
2023/03/26 08:35:44;;;;;;;4.17;2.03;;;;;;;;;;5003394;28;20434;-54
2023/03/26 08:38:10;;;;;;;6.23;1.70;;;;;;;;;;5014293;28;20436;-56
2023/03/26 08:40:45;;;;;;;6.50;2.50;;;;;;;;;;5015222;28;21211;-54
2023/03/26 08:43:37;;;;;;;3.00;1.63;;;;;;;;;;5001160;28;20481;-55
2023/03/26 08:46:12;;;;;;;5.20;1.97;;;;;;;;;;5000184;28;20541;-55
2023/03/26 08:48:48;;;;;;;5.13;2.00;;;;;;;;;;5012596;28;20423;-55
2023/03/26 08:51:34;;;;;;;6.00;2.00;;;;;;;;;;5016263;28;20435;-55
2023/03/26 08:54:05;;;;;;;3.80;2.50;;;;;;;;;;5006506;28;20435;-54
2023/03/26 08:56:34;;;;;;;3.80;1.80;;;;;;;;;;5013887;28;20509;-54
2023/03/26 08:59:12;;;;;;;5.70;2.30;;;;;;;;;;5010329;28;20427;-55
2023/03/26 09:01:44;;;;;;;4.87;2.00;;;;;;;;;;5012291;28;20434;-56
2023/03/26 09:04:29;;;;;;;2.27;1.90;;;;;;;;;;4982620;28;20466;-54
2023/03/26 09:07:21;;;;;;;3.83;2.20;;;;;;;;;;5009585;28;20454;-54
2023/03/26 09:10:07;;;;;;;4.80;2.23;;;;;;;;;;4991160;28;20608;-53
2023/03/26 09:12:43;;;;;;;5.87;1.77;;;;;;;;;;5014287;28;20463;-57
2023/03/26 09:15:25;;;;;;;1.63;1.40;;;;;;;;;;5008569;28;20426;-54
2023/03/26 09:17:54;;;;;;;2.00;1.37;;;;;;;;;;5013127;28;20473;-56
2023/03/26 09:20:21;;;;;;;2.63;1.30;;;;;;;;;;4977833;28;20440;-54
2023/03/26 09:23:05;;;;;;;6.50;1.43;;;;;;;;;;5015991;28;20485;-56
2023/03/26 09:25:50;;;;;;;3.20;1.37;;;;;;;;;;4979230;28;20491;-57
2023/03/26 09:28:35;;;;;;;4.27;1.60;;;;;;;;;;5015106;28;21106;-57
2023/03/26 09:31:27;;;;;;;4.50;1.40;;;;;;;;;;5004370;28;20447;-54
2023/03/26 09:33:55;;;;;;;4.23;1.20;;;;;;;;;;4989950;28;21034;-56
2023/03/26 09:36:36;;;;;;;2.53;1.10;;;;;;;;;;4987922;28;20439;-56
2023/03/26 09:39:09;;;;;;;2.27;1.23;;;;;;;;;;4978349;28;20447;-56
2023/03/26 09:41:42;;;;;;;2.17;1.10;;;;;;;;;;5012149;28;20481;-56
2023/03/26 09:44:08;;;;;;;2.10;1.23;;;;;;;;;;5006351;28;20887;-55
2023/03/26 09:46:37;;;;;;;2.80;1.10;;;;;;;;;;5004900;28;20479;-56
2023/03/26 09:49:06;;;;;;;5.00;1.30;;;;;;;;;;5009210;28;20457;-56
2023/03/26 09:51:48;;;;;;;3.17;1.30;;;;;;;;;;5011557;28;20439;-57
2023/03/26 09:54:33;;;;;;;2.57;1.23;;;;;;;;;;4992425;28;21251;-54
2023/03/26 09:57:04;;;;;;;1.80;1.13;;;;;;;;;;4981661;28;20446;-57
2023/03/26 09:59:34;;;;;;;2.23;1.20;;;;;;;;;;5015116;28;20443;-55
2023/03/26 10:02:09;;;;;;;2.53;1.47;;;;;;;;;;5000527;28;20549;-56
2023/03/26 10:04:39;;;;;;;4.90;1.23;;;;;;;;;;5015252;28;20427;-56
2023/03/26 10:07:07;;;;;;;3.40;1.37;;;;;;;;;;4993338;28;20948;-56
2023/03/26 10:09:52;;;;;;;1.63;1.10;;;;;;;;;;5020680;28;20449;-57
2023/03/26 10:12:20;;;;;;;3.97;0.87;;;;;;;;;;4993725;28;20544;-57
2023/03/26 10:15:00;;;;;;;1.47;1.17;;;;;;;;;;5021755;28;20794;-56
2023/03/26 10:17:27;;;;;;;3.17;1.10;;;;;;;;;;5031397;28;20514;-54
2023/03/26 10:20:18;;;;;;;1.60;1.10;;;;;;;;;;5045433;28;20600;-55
2023/03/26 10:23:03;;;;;;;2.70;1.27;;;;;;;;;;5011940;28;20534;-55
2023/03/26 10:28:36;;;;;;;1.40;0.90;;;;;;;;;;4956156;28;20569;-55
2023/03/26 10:31:21;;;;;;;1.63;0.90;;;;;;;;;;5009953;28;20458;-56
2023/03/26 10:33:51;;;;;;;2.57;1.40;;;;;;;;;;4999698;28;21188;-56
2023/03/26 10:36:29;;;;;;;2.20;0.90;;;;;;;;;;4998980;28;20784;-56
2023/03/26 10:39:02;;;;;;;3.10;1.20;;;;;;;;;;5007130;28;20474;-55
2023/03/26 10:41:34;;;;;;;1.20;0.70;;;;;;;;;;5012564;28;20467;-57
2023/03/26 10:44:20;;;;;;;2.70;0.97;;;;;;;;;;5012572;28;20416;-57
2023/03/26 10:46:49;;;;;;;1.40;0.70;;;;;;;;;;4979244;28;20443;-56
2023/03/26 10:49:15;;;;;;;1.50;0.80;;;;;;;;;;4989632;28;20438;-57
2023/03/26 10:51:47;;;;;;;1.93;0.93;;;;;;;;;;4992894;28;20466;-59
2023/03/26 10:54:13;;;;;;;1.73;0.70;;;;;;;;;;4994598;28;20440;-56
2023/03/26 10:56:40;;;;;;;1.50;0.70;;;;;;;;;;4998264;28;20451;-57
2023/03/26 11:02:20;;;;;;;1.13;0.70;;;;;;;;;;4973214;28;20474;-59
2023/03/26 11:04:53;;;;;;;1.40;0.70;;;;;;;;;;5016728;28;20469;-54
2023/03/26 11:07:19;;;;;;;4.97;1.00;;;;;;;;;;5003803;28;20435;-57
2023/03/26 11:09:45;;;;;;;1.63;0.80;;;;;;;;;;5005930;28;20439;-56
2023/03/26 11:12:13;;;;;;;1.63;0.93;;;;;;;;;;4987937;28;20497;-56
2023/03/26 11:14:46;;;;;;;1.53;0.80;;;;;;;;;;5015526;28;20427;-56
2023/03/26 11:17:28;;;;;;;2.50;0.87;;;;;;;;;;5014750;28;20440;-55
2023/03/26 11:19:57;;;;;;;1.63;0.93;;;;;;;;;;5005861;28;20594;-57
2023/03/26 11:22:37;;;;;;;1.30;0.70;;;;;;;;;;4989674;28;20949;-55
2023/03/26 11:25:24;;;;;;;1.80;0.97;;;;;;;;;;4999803;28;21314;-57
2023/03/26 11:28:08;;;;;;;1.80;0.70;;;;;;;;;;5013226;28;20439;-56
2023/03/26 11:30:45;;;;;;;1.57;0.73;;;;;;;;;;5000727;28;20440;-63
2023/03/26 11:33:18;;;;;;;2.53;1.00;;;;;;;;;;4950379;28;20814;-56
2023/03/26 11:35:48;;;;;;;1.60;0.90;;;;;;;;;;4994715;28;20450;-57
2023/03/26 11:38:20;;;;;;;2.27;0.70;;;;;;;;;;4988714;28;20566;-56
2023/03/26 11:40:49;;;;;;;2.30;0.77;;;;;;;;;;4981373;28;20542;-54
2023/03/26 11:43:16;;;;;;;2.47;0.90;;;;;;;;;;4999036;28;20515;-57
2023/03/26 11:45:43;;;;;;;2.10;0.87;;;;;;;;;;4981419;28;20932;-58
2023/03/26 11:48:13;;;;;;;1.70;1.00;;;;;;;;;;4999868;28;20428;-55
2023/03/26 11:50:41;;;;;;;1.40;0.80;;;;;;;;;;4976454;28;20457;-57
2023/03/26 11:53:11;;;;;;;1.83;0.73;;;;;;;;;;5001684;28;20804;-55
2023/03/26 11:55:41;;;;;;;1.40;0.93;;;;;;;;;;4977142;28;20551;-56
2023/03/26 11:58:09;;;;;;;2.30;1.27;;;;;;;;;;4997425;28;20452;-57
2023/03/26 12:00:35;;;;;;;1.50;0.70;;;;;;;;;;4991609;28;20451;-58
2023/03/26 12:03:01;;;;;;;1.90;0.80;;;;;;;;;;4996964;28;20436;-57
2023/03/26 12:05:35;;;;;;;2.27;0.83;;;;;;;;;;4926024;28;21046;-57
2023/03/26 12:08:16;;;;;;;1.67;0.90;;;;;;;;;;4999577;28;20447;-58
2023/03/26 12:10:43;;;;;;;1.30;0.73;;;;;;;;;;4988176;28;20491;-57
2023/03/26 12:13:21;;;;;;;2.20;1.00;;;;;;;;;;4990858;28;20436;-55
2023/03/26 12:15:47;;;;;;;1.70;0.90;;;;;;;;;;4959952;28;20538;-57
2023/03/26 12:18:23;;;;;;;2.13;1.63;;;;;;;;;;4995297;28;21133;-57
2023/03/26 12:20:49;;;;;;;3.30;0.93;;;;;;;;;;4971387;28;20481;-55
2023/03/26 12:23:33;;;;;;;3.20;1.00;;;;;;;;;;4995129;28;20978;-57
2023/03/26 12:26:17;;;;;;;1.30;0.60;;;;;;;;;;4965741;28;20682;-57
2023/03/26 12:28:43;;;;;;;2.40;1.13;;;;;;;;;;4998541;28;20486;-56
2023/03/26 12:31:10;;;;;;;1.30;0.77;;;;;;;;;;4992898;28;20471;-56
2023/03/26 12:33:37;;;;;;;4.33;1.30;;;;;;;;;;4995942;28;20452;-54
2023/03/26 12:36:21;;;;;;;2.70;1.10;;;;;;;;;;4956733;28;20558;-57
2023/03/26 12:38:47;;;;;;;2.27;1.10;;;;;;;;;;4994415;28;20517;-55
2023/03/26 12:41:15;;;;;;;2.67;1.10;;;;;;;;;;4995850;28;20437;-57
2023/03/26 12:43:42;;;;;;;2.00;0.80;;;;;;;;;;4972780;28;20445;-56
2023/03/26 12:46:20;;;;;;;1.30;0.90;;;;;;;;;;4989022;28;20486;-58
2023/03/26 12:48:47;;;;;;;3.63;0.97;;;;;;;;;;4969032;28;20843;-55
2023/03/26 12:51:31;;;;;;;2.03;1.00;;;;;;;;;;4991113;28;20498;-56
2023/03/26 12:54:08;;;;;;;2.40;1.00;;;;;;;;;;4970185;28;21003;-59
2023/03/26 12:56:49;;;;;;;1.13;0.70;;;;;;;;;;4988887;28;20429;-56
2023/03/26 12:59:28;;;;;;;1.40;0.90;;;;;;;;;;4972273;28;21260;-56
2023/03/26 13:02:10;;;;;;;1.70;0.60;;;;;;;;;;5001264;28;21057;-57
2023/03/26 13:04:39;;;;;;;2.67;1.00;;;;;;;;;;4961333;28;20931;-57
2023/03/26 13:07:25;;;;;;;1.83;1.07;;;;;;;;;;4997149;28;20866;-57
2023/03/26 13:10:07;;;;;;;1.40;0.73;;;;;;;;;;4968071;28;20436;-58
2023/03/26 13:12:49;;;;;;;2.17;0.73;;;;;;;;;;4988514;28;20427;-56
2023/03/26 13:15:31;;;;;;;3.90;0.90;;;;;;;;;;4966573;28;20432;-57
2023/03/26 13:18:16;;;;;;;2.00;1.00;;;;;;;;;;4993126;28;21147;-55
2023/03/26 13:20:49;;;;;;;1.77;0.90;;;;;;;;;;4972879;28;20468;-55
2023/03/26 13:23:18;;;;;;;2.23;0.90;;;;;;;;;;4996496;28;20447;-58
2023/03/26 13:25:48;;;;;;;2.07;0.70;;;;;;;;;;4971465;28;21004;-55
2023/03/26 13:28:23;;;;;;;1.80;0.83;;;;;;;;;;4982567;28;20440;-54
2023/03/26 13:31:02;;;;;;;1.40;0.67;;;;;;;;;;5000512;28;20439;-54
2023/03/26 13:33:46;;;;;;;2.33;0.70;;;;;;;;;;4986549;28;20443;-55
2023/03/26 13:36:15;;;;;;;1.73;0.93;;;;;;;;;;4995435;28;20443;-56
2023/03/26 13:39:02;;;;;;;2.00;0.87;;;;;;;;;;4991171;28;20476;-53
2023/03/26 13:41:33;;;;;;;2.40;0.90;;;;;;;;;;4986943;28;21060;-54
2023/03/26 13:44:04;;;;;;;3.20;1.10;;;;;;;;;;5004715;28;21036;-56
2023/03/26 13:46:36;;;;;;;2.50;0.70;;;;;;;;;;4975605;28;20955;-54
2023/03/26 13:49:03;;;;;;;2.17;0.90;;;;;;;;;;4995168;28;20436;-55
2023/03/26 13:51:38;;;;;;;2.33;1.00;;;;;;;;;;4972271;28;20470;-57
2023/03/26 13:54:16;;;;;;;1.90;1.00;;;;;;;;;;4990354;28;20431;-55
2023/03/26 13:56:43;;;;;;;1.80;0.90;;;;;;;;;;4984497;28;20460;-56
2023/03/26 13:59:20;;;;;;;2.03;1.00;;;;;;;;;;4994235;28;21035;-54
2023/03/26 14:01:51;;;;;;;2.83;0.77;;;;;;;;;;4996515;28;20944;-56
2023/03/26 14:04:20;;;;;;;1.73;0.90;;;;;;;;;;4972937;28;21070;-56
2023/03/26 14:07:05;;;;;;;1.30;0.80;;;;;;;;;;4981783;28;20444;-56
2023/03/26 14:09:53;;;;;;;2.13;1.00;;;;;;;;;;4970507;28;20883;-53
2023/03/26 14:12:32;;;;;;;3.53;0.90;;;;;;;;;;4999263;28;20434;-55
2023/03/26 14:15:24;;;;;;;2.87;1.23;;;;;;;;;;4972014;28;21939;-56
2023/03/26 14:17:50;;;;;;;1.70;1.00;;;;;;;;;;4994529;28;20452;-54
2023/03/26 14:20:19;;;;;;;2.20;0.90;;;;;;;;;;4985548;28;20452;-56
2023/03/26 14:23:01;;;;;;;2.10;0.90;;;;;;;;;;4991465;28;20436;-54
2023/03/26 14:25:46;;;;;;;1.20;0.60;;;;;;;;;;4981907;28;21134;-55
2023/03/26 14:28:21;;;;;;;1.20;0.77;;;;;;;;;;5001298;28;20448;-55
2023/03/26 14:30:48;;;;;;;2.53;0.60;;;;;;;;;;4998584;28;20435;-57
2023/03/26 14:33:33;;;;;;;1.00;0.53;;;;;;;;;;4998574;28;20985;-56
2023/03/26 14:36:01;;;;;;;1.20;0.80;;;;;;;;;;4976058;28;20451;-56
2023/03/26 14:38:46;;;;;;;1.07;0.60;;;;;;;;;;5001953;28;20630;-56
2023/03/26 14:41:25;;;;;;;5.17;1.50;;;;;;;;;;4940876;28;21981;-56
2023/03/26 14:44:10;;;;;;;1.10;0.60;;;;;;;;;;4980831;28;20443;-56
2023/03/26 14:46:45;;;;;;;1.20;0.80;;;;;;;;;;4970568;28;20475;-55
2023/03/26 14:49:27;;;;;;;1.10;0.63;;;;;;;;;;4995207;28;20526;-55
2023/03/26 14:51:59;;;;;;;2.80;0.90;;;;;;;;;;4958588;28;20518;-55
2023/03/26 14:54:26;;;;;;;1.37;0.80;;;;;;;;;;5001696;28;20423;-55
2023/03/26 14:57:11;;;;;;;1.10;0.60;;;;;;;;;;4968647;28;20499;-59
2023/03/26 14:59:46;;;;;;;2.87;1.40;;;;;;;;;;4985863;28;20554;-56
2023/03/26 15:02:21;;;;;;;1.50;0.83;;;;;;;;;;4966114;28;20494;-56
2023/03/26 15:04:53;;;;;;;1.10;0.80;;;;;;;;;;4984528;28;20514;-55
2023/03/26 15:07:38;;;;;;;2.40;0.80;;;;;;;;;;4973093;28;20439;-56
2023/03/26 15:10:04;;;;;;;1.37;0.60;;;;;;;;;;5000035;28;20946;-57
2023/03/26 15:12:49;;;;;;;1.73;0.90;;;;;;;;;;4974658;28;20440;-55